Pumpkin Center, Indiana
Current Conditions -  °F | °C
As of 12:53 AM on Saturday 01 Nov 2014 (Local Time) from KBMG Reporting Station
Overcast Overcast  
Wind Chill: 25°   Ceiling: 3200
Heat Index: 35°   Visibility: 10mi
Dew Point: 27°   Wind: 16mph
Humidity: 72%   Direction: 350°N
Pressure: 30.18"   Gusts: 33mph
Location:  38.6433°N, 86.4481°W
Report Text: KBMG 010453Z 35014G29KT 10SM BKN032 OVC041 02/M03 A3018 RMK AO2 PK WND 35029/0450 SLP224 T00171028 400830011
Loading
Personal Weather Stations






























Interactive Weather Map
Tropical Storm Tracking
New forecast layout! Learn more

10-Day Weather Forecast

Advertisements
Track Severe Weather on mobile